sensor_id;sensor_type;location;lat;lon;timestamp;temperature;humidity
70214;DHT22;60138;55.808;37.078;2023-04-24T00:01:17;7.33;51.06
70214;DHT22;60138;55.808;37.078;2023-04-24T00:03:43;7.29;51.40
70214;DHT22;60138;55.808;37.078;2023-04-24T00:06:08;7.26;50.82
70214;DHT22;60138;55.808;37.078;2023-04-24T00:08:37;7.22;50.56
70214;DHT22;60138;55.808;37.078;2023-04-24T00:11:03;7.17;50.98
70214;DHT22;60138;55.808;37.078;2023-04-24T00:13:29;7.14;51.68
70214;DHT22;60138;55.808;37.078;2023-04-24T00:15:55;7.12;51.45
70214;DHT22;60138;55.808;37.078;2023-04-24T00:18:21;7.10;51.13
70214;DHT22;60138;55.808;37.078;2023-04-24T00:20:47;7.08;51.19
70214;DHT22;60138;55.808;37.078;2023-04-24T00:23:13;7.02;50.68
70214;DHT22;60138;55.808;37.078;2023-04-24T00:25:39;6.99;51.04
70214;DHT22;60138;55.808;37.078;2023-04-24T00:28:04;6.99;52.32
70214;DHT22;60138;55.808;37.078;2023-04-24T00:30:30;6.96;51.71
70214;DHT22;60138;55.808;37.078;2023-04-24T00:32:57;6.95;51.75
70214;DHT22;60138;55.808;37.078;2023-04-24T00:35:23;6.91;51.91
70214;DHT22;60138;55.808;37.078;2023-04-24T00:37:49;6.88;51.27
70214;DHT22;60138;55.808;37.078;2023-04-24T00:40:16;6.84;51.99
70214;DHT22;60138;55.808;37.078;2023-04-24T00:42:43;6.82;51.57
70214;DHT22;60138;55.808;37.078;2023-04-24T00:45:10;6.78;51.62
70214;DHT22;60138;55.808;37.078;2023-04-24T00:47:36;6.73;52.03
70214;DHT22;60138;55.808;37.078;2023-04-24T00:50:03;6.68;52.04
70214;DHT22;60138;55.808;37.078;2023-04-24T00:52:30;6.64;52.36
70214;DHT22;60138;55.808;37.078;2023-04-24T00:54:56;6.61;52.39
70214;DHT22;60138;55.808;37.078;2023-04-24T00:57:22;6.57;52.42
70214;DHT22;60138;55.808;37.078;2023-04-24T00:59:47;6.54;52.99
70214;DHT22;60138;55.808;37.078;2023-04-24T01:02:13;6.51;52.69
70214;DHT22;60138;55.808;37.078;2023-04-24T01:04:39;6.46;52.43
70214;DHT22;60138;55.808;37.078;2023-04-24T01:07:05;6.42;52.91
70214;DHT22;60138;55.808;37.078;2023-04-24T01:09:31;6.40;53.30
70214;DHT22;60138;55.808;37.078;2023-04-24T01:11:57;6.37;52.94
70214;DHT22;60138;55.808;37.078;2023-04-24T01:14:23;6.34;53.07
70214;DHT22;60138;55.808;37.078;2023-04-24T01:16:49;6.31;53.04
70214;DHT22;60138;55.808;37.078;2023-04-24T01:19:16;6.27;53.13
70214;DHT22;60138;55.808;37.078;2023-04-24T01:21:43;6.25;53.86
70214;DHT22;60138;55.808;37.078;2023-04-24T01:24:09;6.21;53.81
70214;DHT22;60138;55.808;37.078;2023-04-24T01:26:34;6.20;54.27
70214;DHT22;60138;55.808;37.078;2023-04-24T01:29:00;6.17;53.76
70214;DHT22;60138;55.808;37.078;2023-04-24T01:31:26;6.12;53.52
70214;DHT22;60138;55.808;37.078;2023-04-24T01:33:52;6.10;53.66
70214;DHT22;60138;55.808;37.078;2023-04-24T01:36:19;6.07;54.00
70214;DHT22;60138;55.808;37.078;2023-04-24T01:38:45;6.04;54.08
70214;DHT22;60138;55.808;37.078;2023-04-24T01:41:11;6.01;54.94
70214;DHT22;60138;55.808;37.078;2023-04-24T01:43:36;6.00;54.60
70214;DHT22;60138;55.808;37.078;2023-04-24T01:46:02;5.99;54.80
70214;DHT22;60138;55.808;37.078;2023-04-24T01:48:29;5.97;54.30
70214;DHT22;60138;55.808;37.078;2023-04-24T01:50:56;5.94;54.36
70214;DHT22;60138;55.808;37.078;2023-04-24T01:53:22;5.90;53.68
70214;DHT22;60138;55.808;37.078;2023-04-24T01:55:47;5.87;53.90
70214;DHT22;60138;55.808;37.078;2023-04-24T01:58:13;5.89;54.00
70214;DHT22;60138;55.808;37.078;2023-04-24T02:00:40;5.87;54.52
70214;DHT22;60138;55.808;37.078;2023-04-24T02:03:05;5.86;54.18
70214;DHT22;60138;55.808;37.078;2023-04-24T02:05:31;5.84;54.26
70214;DHT22;60138;55.808;37.078;2023-04-24T02:07:57;5.82;54.83
70214;DHT22;60138;55.808;37.078;2023-04-24T02:10:23;5.79;54.59
70214;DHT22;60138;55.808;37.078;2023-04-24T02:12:48;5.79;54.68
70214;DHT22;60138;55.808;37.078;2023-04-24T02:15:16;5.77;54.95
70214;DHT22;60138;55.808;37.078;2023-04-24T02:17:42;5.77;54.78
70214;DHT22;60138;55.808;37.078;2023-04-24T02:20:07;5.76;55.23
70214;DHT22;60138;55.808;37.078;2023-04-24T02:22:33;5.75;54.87
70214;DHT22;60138;55.808;37.078;2023-04-24T02:25:01;5.76;54.89
70214;DHT22;60138;55.808;37.078;2023-04-24T02:27:31;5.77;54.84
70214;DHT22;60138;55.808;37.078;2023-04-24T02:29:56;5.78;55.36
70214;DHT22;60138;55.808;37.078;2023-04-24T02:32:22;5.78;55.15
70214;DHT22;60138;55.808;37.078;2023-04-24T02:34:48;5.78;55.20
70214;DHT22;60138;55.808;37.078;2023-04-24T02:37:14;5.78;55.28
70214;DHT22;60138;55.808;37.078;2023-04-24T02:39:39;5.78;55.52
70214;DHT22;60138;55.808;37.078;2023-04-24T02:42:05;5.78;55.51
70214;DHT22;60138;55.808;37.078;2023-04-24T02:44:31;5.78;55.52
70214;DHT22;60138;55.808;37.078;2023-04-24T02:46:57;5.78;55.39
70214;DHT22;60138;55.808;37.078;2023-04-24T02:49:22;5.78;55.50
70214;DHT22;60138;55.808;37.078;2023-04-24T02:51:48;5.79;55.57
70214;DHT22;60138;55.808;37.078;2023-04-24T02:54:14;5.80;55.46
70214;DHT22;60138;55.808;37.078;2023-04-24T02:56:40;5.81;55.48
70214;DHT22;60138;55.808;37.078;2023-04-24T02:59:07;5.82;55.44
70214;DHT22;60138;55.808;37.078;2023-04-24T03:01:33;5.85;55.81
70214;DHT22;60138;55.808;37.078;2023-04-24T03:03:59;5.86;55.71
70214;DHT22;60138;55.808;37.078;2023-04-24T03:06:24;5.87;55.83
70214;DHT22;60138;55.808;37.078;2023-04-24T03:08:51;5.92;55.68
70214;DHT22;60138;55.808;37.078;2023-04-24T03:11:17;5.96;55.61
70214;DHT22;60138;55.808;37.078;2023-04-24T03:13:42;5.99;56.05
70214;DHT22;60138;55.808;37.078;2023-04-24T03:16:08;6.00;55.87
70214;DHT22;60138;55.808;37.078;2023-04-24T03:18:34;6.06;55.99
70214;DHT22;60138;55.808;37.078;2023-04-24T03:21:00;6.08;56.17
70214;DHT22;60138;55.808;37.078;2023-04-24T03:23:27;6.11;55.87
70214;DHT22;60138;55.808;37.078;2023-04-24T03:25:53;6.14;55.94
70214;DHT22;60138;55.808;37.078;2023-04-24T03:28:19;6.19;55.93
70214;DHT22;60138;55.808;37.078;2023-04-24T03:30:52;6.24;55.77
70214;DHT22;60138;55.808;37.078;2023-04-24T03:33:19;6.28;55.77
70214;DHT22;60138;55.808;37.078;2023-04-24T03:35:55;6.34;55.69
70214;DHT22;60138;55.808;37.078;2023-04-24T03:38:21;6.38;55.60
70214;DHT22;60138;55.808;37.078;2023-04-24T03:41:00;6.44;55.42
70214;DHT22;60138;55.808;37.078;2023-04-24T03:43:48;6.49;55.66
70214;DHT22;60138;55.808;37.078;2023-04-24T03:46:15;6.53;55.51
70214;DHT22;60138;55.808;37.078;2023-04-24T03:48:46;6.59;55.54
70214;DHT22;60138;55.808;37.078;2023-04-24T03:51:13;6.66;55.65
70214;DHT22;60138;55.808;37.078;2023-04-24T03:53:42;6.71;55.63
70214;DHT22;60138;55.808;37.078;2023-04-24T03:56:10;6.79;55.79
70214;DHT22;60138;55.808;37.078;2023-04-24T03:58:36;6.84;55.70
70214;DHT22;60138;55.808;37.078;2023-04-24T04:01:02;6.93;55.46
70214;DHT22;60138;55.808;37.078;2023-04-24T04:03:54;7.02;55.21
70214;DHT22;60138;55.808;37.078;2023-04-24T04:06:23;7.09;55.36
70214;DHT22;60138;55.808;37.078;2023-04-24T04:08:50;7.14;55.00
70214;DHT22;60138;55.808;37.078;2023-04-24T04:11:17;7.19;54.84
70214;DHT22;60138;55.808;37.078;2023-04-24T04:13:44;7.27;54.84
70214;DHT22;60138;55.808;37.078;2023-04-24T04:16:10;7.33;54.39
70214;DHT22;60138;55.808;37.078;2023-04-24T04:18:36;7.42;54.48
70214;DHT22;60138;55.808;37.078;2023-04-24T04:21:04;7.48;54.43
70214;DHT22;60138;55.808;37.078;2023-04-24T04:23:30;7.60;54.13
70214;DHT22;60138;55.808;37.078;2023-04-24T04:26:12;7.69;55.29
70214;DHT22;60138;55.808;37.078;2023-04-24T04:28:52;7.84;54.09
70214;DHT22;60138;55.808;37.078;2023-04-24T04:31:19;7.93;53.92
70214;DHT22;60138;55.808;37.078;2023-04-24T04:33:45;8.02;53.60
70214;DHT22;60138;55.808;37.078;2023-04-24T04:36:11;8.14;53.43
70214;DHT22;60138;55.808;37.078;2023-04-24T04:38:42;8.27;53.44
70214;DHT22;60138;55.808;37.078;2023-04-24T04:41:16;8.34;53.43
70214;DHT22;60138;55.808;37.078;2023-04-24T04:43:41;8.49;53.10
70214;DHT22;60138;55.808;37.078;2023-04-24T04:46:08;8.65;52.43
70214;DHT22;60138;55.808;37.078;2023-04-24T04:49:00;8.74;51.72
70214;DHT22;60138;55.808;37.078;2023-04-24T04:51:27;8.85;50.99
70214;DHT22;60138;55.808;37.078;2023-04-24T04:53:53;8.95;50.77
70214;DHT22;60138;55.808;37.078;2023-04-24T04:56:19;9.02;50.65
70214;DHT22;60138;55.808;37.078;2023-04-24T04:58:46;9.11;50.28
70214;DHT22;60138;55.808;37.078;2023-04-24T05:01:15;9.19;50.05
70214;DHT22;60138;55.808;37.078;2023-04-24T05:03:44;9.27;50.04
70214;DHT22;60138;55.808;37.078;2023-04-24T05:06:13;9.35;49.80
70214;DHT22;60138;55.808;37.078;2023-04-24T05:08:39;9.46;49.60
70214;DHT22;60138;55.808;37.078;2023-04-24T05:11:08;9.62;49.53
70214;DHT22;60138;55.808;37.078;2023-04-24T05:13:34;9.75;49.58
70214;DHT22;60138;55.808;37.078;2023-04-24T05:16:01;9.91;49.23
70214;DHT22;60138;55.808;37.078;2023-04-24T05:18:28;9.97;49.15
70214;DHT22;60138;55.808;37.078;2023-04-24T05:20:54;10.10;49.06
70214;DHT22;60138;55.808;37.078;2023-04-24T05:23:20;10.22;48.74
70214;DHT22;60138;55.808;37.078;2023-04-24T05:25:50;10.37;49.22
70214;DHT22;60138;55.808;37.078;2023-04-24T05:28:16;10.46;48.27
70214;DHT22;60138;55.808;37.078;2023-04-24T05:30:44;10.58;48.36
70214;DHT22;60138;55.808;37.078;2023-04-24T05:33:12;10.68;47.90
70214;DHT22;60138;55.808;37.078;2023-04-24T05:35:38;10.73;47.66
70214;DHT22;60138;55.808;37.078;2023-04-24T05:38:05;10.81;47.41
70214;DHT22;60138;55.808;37.078;2023-04-24T05:40:31;10.93;47.28
70214;DHT22;60138;55.808;37.078;2023-04-24T05:42:57;10.99;47.09
70214;DHT22;60138;55.808;37.078;2023-04-24T05:45:24;11.07;46.84
70214;DHT22;60138;55.808;37.078;2023-04-24T05:47:50;11.17;46.90
70214;DHT22;60138;55.808;37.078;2023-04-24T05:50:15;11.28;45.99
70214;DHT22;60138;55.808;37.078;2023-04-24T05:52:41;11.45;47.87
70214;DHT22;60138;55.808;37.078;2023-04-24T05:55:21;11.69;45.96
70214;DHT22;60138;55.808;37.078;2023-04-24T05:57:48;11.81;46.08
70214;DHT22;60138;55.808;37.078;2023-04-24T06:00:14;11.94;45.49
70214;DHT22;60138;55.808;37.078;2023-04-24T06:02:44;12.07;45.15
70214;DHT22;60138;55.808;37.078;2023-04-24T06:05:12;12.17;44.19
70214;DHT22;60138;55.808;37.078;2023-04-24T06:07:38;12.25;44.28
70214;DHT22;60138;55.808;37.078;2023-04-24T06:10:06;12.28;45.45
70214;DHT22;60138;55.808;37.078;2023-04-24T06:12:38;12.51;45.06
70214;DHT22;60138;55.808;37.078;2023-04-24T06:15:09;12.70;44.13
70214;DHT22;60138;55.808;37.078;2023-04-24T06:18:02;12.88;43.94
70214;DHT22;60138;55.808;37.078;2023-04-24T06:20:28;13.07;43.49
70214;DHT22;60138;55.808;37.078;2023-04-24T06:22:53;13.16;43.26
70214;DHT22;60138;55.808;37.078;2023-04-24T06:25:19;13.32;42.86
70214;DHT22;60138;55.808;37.078;2023-04-24T06:27:45;13.44;42.83
70214;DHT22;60138;55.808;37.078;2023-04-24T06:30:11;13.58;42.65
70214;DHT22;60138;55.808;37.078;2023-04-24T06:32:38;13.65;42.38
70214;DHT22;60138;55.808;37.078;2023-04-24T06:35:04;13.80;42.00
70214;DHT22;60138;55.808;37.078;2023-04-24T06:37:30;13.94;41.68
70214;DHT22;60138;55.808;37.078;2023-04-24T06:39:56;14.10;39.92
70214;DHT22;60138;55.808;37.078;2023-04-24T06:42:21;14.23;41.07
70214;DHT22;60138;55.808;37.078;2023-04-24T06:44:49;14.30;41.17
70214;DHT22;60138;55.808;37.078;2023-04-24T06:47:14;14.41;40.95
70214;DHT22;60138;55.808;37.078;2023-04-24T06:49:40;14.43;40.76
70214;DHT22;60138;55.808;37.078;2023-04-24T06:52:06;14.55;40.61
70214;DHT22;60138;55.808;37.078;2023-04-24T06:54:32;14.57;40.65
70214;DHT22;60138;55.808;37.078;2023-04-24T06:56:59;14.63;40.53
70214;DHT22;60138;55.808;37.078;2023-04-24T06:59:25;14.71;40.36
70214;DHT22;60138;55.808;37.078;2023-04-24T07:01:50;14.84;40.17
70214;DHT22;60138;55.808;37.078;2023-04-24T07:04:17;14.96;39.87
70214;DHT22;60138;55.808;37.078;2023-04-24T07:06:44;15.14;39.78
70214;DHT22;60138;55.808;37.078;2023-04-24T07:09:10;15.33;39.63
70214;DHT22;60138;55.808;37.078;2023-04-24T07:11:36;15.47;39.18
70214;DHT22;60138;55.808;37.078;2023-04-24T07:14:02;15.65;38.71
70214;DHT22;60138;55.808;37.078;2023-04-24T07:16:28;15.75;38.74
70214;DHT22;60138;55.808;37.078;2023-04-24T07:18:53;15.93;38.33
70214;DHT22;60138;55.808;37.078;2023-04-24T07:21:19;16.16;38.27
70214;DHT22;60138;55.808;37.078;2023-04-24T07:23:45;16.44;37.48
70214;DHT22;60138;55.808;37.078;2023-04-24T07:26:10;16.70;37.14
70214;DHT22;60138;55.808;37.078;2023-04-24T07:28:36;16.90;37.12
70214;DHT22;60138;55.808;37.078;2023-04-24T07:31:02;17.08;36.99
70214;DHT22;60138;55.808;37.078;2023-04-24T07:33:27;17.25;36.27
70214;DHT22;60138;55.808;37.078;2023-04-24T07:35:53;17.43;36.09
70214;DHT22;60138;55.808;37.078;2023-04-24T07:38:19;17.48;35.89
70214;DHT22;60138;55.808;37.078;2023-04-24T07:40:45;17.49;34.97
70214;DHT22;60138;55.808;37.078;2023-04-24T07:43:10;17.45;35.31
70214;DHT22;60138;55.808;37.078;2023-04-24T07:45:36;17.37;35.82
70214;DHT22;60138;55.808;37.078;2023-04-24T07:48:02;17.39;35.70
70214;DHT22;60138;55.808;37.078;2023-04-24T07:50:28;17.41;34.92
70214;DHT22;60138;55.808;37.078;2023-04-24T07:52:54;17.43;33.71
70214;DHT22;60138;55.808;37.078;2023-04-24T07:55:20;17.45;33.23
70214;DHT22;60138;55.808;37.078;2023-04-24T07:57:45;17.53;34.25
70214;DHT22;60138;55.808;37.078;2023-04-24T08:00:11;17.62;32.70
70214;DHT22;60138;55.808;37.078;2023-04-24T08:02:38;17.73;32.28
70214;DHT22;60138;55.808;37.078;2023-04-24T08:05:05;17.94;31.96
70214;DHT22;60138;55.808;37.078;2023-04-24T08:07:31;18.13;32.84
70214;DHT22;60138;55.808;37.078;2023-04-24T08:09:57;18.28;32.51
70214;DHT22;60138;55.808;37.078;2023-04-24T08:12:22;18.35;32.55
70214;DHT22;60138;55.808;37.078;2023-04-24T08:14:48;18.29;29.04
70214;DHT22;60138;55.808;37.078;2023-04-24T08:17:14;18.25;28.72
70214;DHT22;60138;55.808;37.078;2023-04-24T08:19:40;18.23;31.03
70214;DHT22;60138;55.808;37.078;2023-04-24T08:22:06;18.21;29.11
70214;DHT22;60138;55.808;37.078;2023-04-24T08:24:32;18.26;26.36
70214;DHT22;60138;55.808;37.078;2023-04-24T08:26:57;18.34;29.38
70214;DHT22;60138;55.808;37.078;2023-04-24T08:29:23;18.40;31.36
70214;DHT22;60138;55.808;37.078;2023-04-24T08:31:49;18.43;30.83
70214;DHT22;60138;55.808;37.078;2023-04-24T08:34:15;18.41;30.74
70214;DHT22;60138;55.808;37.078;2023-04-24T08:36:41;18.47;31.99
70214;DHT22;60138;55.808;37.078;2023-04-24T08:39:07;18.63;25.79
70214;DHT22;60138;55.808;37.078;2023-04-24T08:41:34;18.83;31.16
70214;DHT22;60138;55.808;37.078;2023-04-24T08:44:01;19.05;30.96
70214;DHT22;60138;55.808;37.078;2023-04-24T08:46:27;19.17;23.55
70214;DHT22;60138;55.808;37.078;2023-04-24T08:48:55;19.22;29.08
70214;DHT22;60138;55.808;37.078;2023-04-24T08:51:22;19.21;30.32
70214;DHT22;60138;55.808;37.078;2023-04-24T08:53:49;19.23;29.93
70214;DHT22;60138;55.808;37.078;2023-04-24T08:56:16;19.20;29.40
70214;DHT22;60138;55.808;37.078;2023-04-24T08:58:42;19.18;30.03
70214;DHT22;60138;55.808;37.078;2023-04-24T09:01:08;19.14;29.07
70214;DHT22;60138;55.808;37.078;2023-04-24T09:03:34;19.17;29.22
70214;DHT22;60138;55.808;37.078;2023-04-24T09:06:01;19.13;30.02
70214;DHT22;60138;55.808;37.078;2023-04-24T09:08:28;18.98;28.09
70214;DHT22;60138;55.808;37.078;2023-04-24T09:10:53;18.84;27.41
70214;DHT22;60138;55.808;37.078;2023-04-24T09:13:20;18.72;25.14
70214;DHT22;60138;55.808;37.078;2023-04-24T09:15:46;18.78;25.67
70214;DHT22;60138;55.808;37.078;2023-04-24T09:18:12;18.91;28.58
70214;DHT22;60138;55.808;37.078;2023-04-24T09:21:17;19.05;26.10
70214;DHT22;60138;55.808;37.078;2023-04-24T09:23:42;19.16;27.67
70214;DHT22;60138;55.808;37.078;2023-04-24T09:26:09;19.37;24.53
70214;DHT22;60138;55.808;37.078;2023-04-24T09:28:37;19.46;28.86
70214;DHT22;60138;55.808;37.078;2023-04-24T09:31:14;19.55;28.58
70214;DHT22;60138;55.808;37.078;2023-04-24T09:33:40;19.61;27.22
70214;DHT22;60138;55.808;37.078;2023-04-24T09:36:18;19.73;26.66
70214;DHT22;60138;55.808;37.078;2023-04-24T09:38:44;19.83;27.01
70214;DHT22;60138;55.808;37.078;2023-04-24T09:41:13;19.95;28.32
70214;DHT22;60138;55.808;37.078;2023-04-24T09:43:39;20.02;27.31
70214;DHT22;60138;55.808;37.078;2023-04-24T09:46:06;20.14;23.69
70214;DHT22;60138;55.808;37.078;2023-04-24T09:48:37;20.32;22.14
70214;DHT22;60138;55.808;37.078;2023-04-24T09:51:04;20.46;27.49
70214;DHT22;60138;55.808;37.078;2023-04-24T09:53:30;20.68;26.74
70214;DHT22;60138;55.808;37.078;2023-04-24T09:56:02;20.79;21.44
70214;DHT22;60138;55.808;37.078;2023-04-24T09:58:29;20.87;26.34
70214;DHT22;60138;55.808;37.078;2023-04-24T10:00:55;20.89;26.20
70214;DHT22;60138;55.808;37.078;2023-04-24T10:03:24;20.96;26.96
70214;DHT22;60138;55.808;37.078;2023-04-24T10:05:51;20.87;26.28
70214;DHT22;60138;55.808;37.078;2023-04-24T10:08:18;20.76;24.85
70214;DHT22;60138;55.808;37.078;2023-04-24T10:10:45;20.75;25.36
70214;DHT22;60138;55.808;37.078;2023-04-24T10:13:12;20.79;25.56
70214;DHT22;60138;55.808;37.078;2023-04-24T10:15:40;20.85;27.78
70214;DHT22;60138;55.808;37.078;2023-04-24T10:18:08;20.95;26.58
70214;DHT22;60138;55.808;37.078;2023-04-24T10:20:35;21.02;27.92
70214;DHT22;60138;55.808;37.078;2023-04-24T10:23:01;21.06;27.78
70214;DHT22;60138;55.808;37.078;2023-04-24T10:25:31;21.06;24.20
70214;DHT22;60138;55.808;37.078;2023-04-24T10:27:58;21.05;26.01
70214;DHT22;60138;55.808;37.078;2023-04-24T10:30:25;21.13;25.90
70214;DHT22;60138;55.808;37.078;2023-04-24T10:32:51;21.21;24.90
70214;DHT22;60138;55.808;37.078;2023-04-24T10:35:18;21.29;25.71
70214;DHT22;60138;55.808;37.078;2023-04-24T10:37:48;21.25;24.86
70214;DHT22;60138;55.808;37.078;2023-04-24T10:40:27;21.20;23.01
70214;DHT22;60138;55.808;37.078;2023-04-24T10:42:53;21.23;26.18
70214;DHT22;60138;55.808;37.078;2023-04-24T10:45:20;21.34;25.17
70214;DHT22;60138;55.808;37.078;2023-04-24T10:47:59;21.45;25.66
70214;DHT22;60138;55.808;37.078;2023-04-24T10:50:26;21.44;23.06
70214;DHT22;60138;55.808;37.078;2023-04-24T10:52:52;21.34;25.49
70214;DHT22;60138;55.808;37.078;2023-04-24T10:55:50;21.34;24.83
70214;DHT22;60138;55.808;37.078;2023-04-24T10:58:21;21.40;24.46
70214;DHT22;60138;55.808;37.078;2023-04-24T11:00:59;21.46;24.73
70214;DHT22;60138;55.808;37.078;2023-04-24T11:03:33;21.53;24.85
70214;DHT22;60138;55.808;37.078;2023-04-24T11:06:02;21.55;24.98
70214;DHT22;60138;55.808;37.078;2023-04-24T11:11:20;21.61;24.78
70214;DHT22;60138;55.808;37.078;2023-04-24T11:19:09;21.69;23.41
70214;DHT22;60138;55.808;37.078;2023-04-24T11:21:48;21.69;23.92
70214;DHT22;60138;55.808;37.078;2023-04-24T11:27:22;21.92;25.81
70214;DHT22;60138;55.808;37.078;2023-04-24T11:29:49;21.88;24.27
70214;DHT22;60138;55.808;37.078;2023-04-24T11:34:52;22.06;24.75
70214;DHT22;60138;55.808;37.078;2023-04-24T11:37:18;22.14;25.01
70214;DHT22;60138;55.808;37.078;2023-04-24T11:39:44;22.25;24.13
70214;DHT22;60138;55.808;37.078;2023-04-24T11:42:10;23.74;24.14
70214;DHT22;60138;55.808;37.078;2023-04-24T11:44:39;25.46;19.97
70214;DHT22;60138;55.808;37.078;2023-04-24T11:47:06;26.85;20.02
70214;DHT22;60138;55.808;37.078;2023-04-24T11:49:33;27.82;20.91
70214;DHT22;60138;55.808;37.078;2023-04-24T11:52:02;28.69;20.34
70214;DHT22;60138;55.808;37.078;2023-04-24T11:54:28;28.88;20.99
70214;DHT22;60138;55.808;37.078;2023-04-24T11:56:54;28.88;21.31
70214;DHT22;60138;55.808;37.078;2023-04-24T11:59:19;28.75;17.46
70214;DHT22;60138;55.808;37.078;2023-04-24T12:01:46;28.50;17.90
70214;DHT22;60138;55.808;37.078;2023-04-24T12:04:12;27.80;20.86
70214;DHT22;60138;55.808;37.078;2023-04-24T12:06:38;27.91;22.48
70214;DHT22;60138;55.808;37.078;2023-04-24T12:09:04;27.38;19.45
70214;DHT22;60138;55.808;37.078;2023-04-24T12:11:30;26.50;19.57
70214;DHT22;60138;55.808;37.078;2023-04-24T12:13:56;25.87;21.08
70214;DHT22;60138;55.808;37.078;2023-04-24T12:16:23;25.32;22.83
70214;DHT22;60138;55.808;37.078;2023-04-24T12:18:51;24.76;21.77
70214;DHT22;60138;55.808;37.078;2023-04-24T12:21:23;24.41;21.43
70214;DHT22;60138;55.808;37.078;2023-04-24T12:23:48;24.09;21.91
70214;DHT22;60138;55.808;37.078;2023-04-24T12:30:28;28.49;20.45
70214;DHT22;60138;55.808;37.078;2023-04-24T12:32:54;30.18;19.05
70214;DHT22;60138;55.808;37.078;2023-04-24T12:35:22;31.67;11.11
70214;DHT22;60138;55.808;37.078;2023-04-24T12:37:48;32.49;15.84
70214;DHT22;60138;55.808;37.078;2023-04-24T12:40:14;33.02;14.16
70214;DHT22;60138;55.808;37.078;2023-04-24T12:42:49;33.36;15.13
70214;DHT22;60138;55.808;37.078;2023-04-24T12:45:16;34.30;15.94
70214;DHT22;60138;55.808;37.078;2023-04-24T12:47:43;34.80;15.83
70214;DHT22;60138;55.808;37.078;2023-04-24T12:50:31;35.04;12.55
70214;DHT22;60138;55.808;37.078;2023-04-24T12:52:57;35.20;16.16
70214;DHT22;60138;55.808;37.078;2023-04-24T12:55:22;35.28;16.63
70214;DHT22;60138;55.808;37.078;2023-04-24T12:57:48;35.81;16.49
70214;DHT22;60138;55.808;37.078;2023-04-24T13:00:14;35.63;15.84
70214;DHT22;60138;55.808;37.078;2023-04-24T13:02:40;35.53;15.71
70214;DHT22;60138;55.808;37.078;2023-04-24T13:05:06;33.80;14.12
70214;DHT22;60138;55.808;37.078;2023-04-24T13:07:32;32.16;15.15
70214;DHT22;60138;55.808;37.078;2023-04-24T13:09:58;30.89;16.85
70214;DHT22;60138;55.808;37.078;2023-04-24T13:12:24;30.36;16.30
70214;DHT22;60138;55.808;37.078;2023-04-24T13:14:50;30.30;17.36
70214;DHT22;60138;55.808;37.078;2023-04-24T13:17:16;30.91;17.03
70214;DHT22;60138;55.808;37.078;2023-04-24T13:19:43;30.42;16.87
70214;DHT22;60138;55.808;37.078;2023-04-24T13:22:10;29.70;16.86
70214;DHT22;60138;55.808;37.078;2023-04-24T13:24:37;28.99;16.20
70214;DHT22;60138;55.808;37.078;2023-04-24T13:27:03;28.31;17.01
70214;DHT22;60138;55.808;37.078;2023-04-24T13:29:28;27.84;16.97
70214;DHT22;60138;55.808;37.078;2023-04-24T13:31:55;27.24;16.93
70214;DHT22;60138;55.808;37.078;2023-04-24T13:34:24;26.85;17.48
70214;DHT22;60138;55.808;37.078;2023-04-24T13:36:52;26.76;18.37
70214;DHT22;60138;55.808;37.078;2023-04-24T13:39:17;26.49;18.06
70214;DHT22;60138;55.808;37.078;2023-04-24T13:41:43;26.25;17.74
70214;DHT22;60138;55.808;37.078;2023-04-24T13:44:09;25.96;17.84
70214;DHT22;60138;55.808;37.078;2023-04-24T13:46:35;25.65;18.53
70214;DHT22;60138;55.808;37.078;2023-04-24T13:49:02;25.37;18.82
70214;DHT22;60138;55.808;37.078;2023-04-24T13:51:28;25.46;19.10
70214;DHT22;60138;55.808;37.078;2023-04-24T13:53:54;26.96;18.80
70214;DHT22;60138;55.808;37.078;2023-04-24T13:56:19;28.60;18.64
70214;DHT22;60138;55.808;37.078;2023-04-24T13:58:45;30.11;18.13
70214;DHT22;60138;55.808;37.078;2023-04-24T14:01:11;31.34;16.78
70214;DHT22;60138;55.808;37.078;2023-04-24T14:03:38;32.20;17.16
70214;DHT22;60138;55.808;37.078;2023-04-24T14:06:03;32.96;14.34
70214;DHT22;60138;55.808;37.078;2023-04-24T14:08:29;33.56;15.42
70214;DHT22;60138;55.808;37.078;2023-04-24T14:10:55;33.75;15.93
70214;DHT22;60138;55.808;37.078;2023-04-24T14:13:20;33.28;15.73
70214;DHT22;60138;55.808;37.078;2023-04-24T14:15:46;33.72;15.65
70214;DHT22;60138;55.808;37.078;2023-04-24T14:18:12;34.14;14.02
70214;DHT22;60138;55.808;37.078;2023-04-24T14:20:37;34.42;15.72
70214;DHT22;60138;55.808;37.078;2023-04-24T14:23:04;34.75;14.55
70214;DHT22;60138;55.808;37.078;2023-04-24T14:25:29;35.01;13.85
70214;DHT22;60138;55.808;37.078;2023-04-24T14:27:55;35.05;15.16
70214;DHT22;60138;55.808;37.078;2023-04-24T14:30:21;35.08;14.40
70214;DHT22;60138;55.808;37.078;2023-04-24T14:32:48;35.21;14.30
70214;DHT22;60138;55.808;37.078;2023-04-24T14:35:13;35.38;14.48
70214;DHT22;60138;55.808;37.078;2023-04-24T14:37:39;35.40;13.56
70214;DHT22;60138;55.808;37.078;2023-04-24T14:40:06;34.76;13.59
70214;DHT22;60138;55.808;37.078;2023-04-24T14:42:33;33.61;13.44
70214;DHT22;60138;55.808;37.078;2023-04-24T14:44:59;32.46;13.44
70214;DHT22;60138;55.808;37.078;2023-04-24T14:47:25;31.73;14.00
70214;DHT22;60138;55.808;37.078;2023-04-24T14:49:51;31.23;14.34
70214;DHT22;60138;55.808;37.078;2023-04-24T14:52:17;30.85;14.55
70214;DHT22;60138;55.808;37.078;2023-04-24T14:54:43;30.55;14.76
70214;DHT22;60138;55.808;37.078;2023-04-24T14:57:09;30.15;15.00
70214;DHT22;60138;55.808;37.078;2023-04-24T14:59:35;29.45;14.99
70214;DHT22;60138;55.808;37.078;2023-04-24T15:02:00;28.87;15.64
70214;DHT22;60138;55.808;37.078;2023-04-24T15:04:27;28.16;15.08
70214;DHT22;60138;55.808;37.078;2023-04-24T15:06:53;27.56;15.55
70214;DHT22;60138;55.808;37.078;2023-04-24T15:09:23;27.09;15.39
70214;DHT22;60138;55.808;37.078;2023-04-24T15:11:49;26.84;15.03
70214;DHT22;60138;55.808;37.078;2023-04-24T15:14:16;26.55;16.51
70214;DHT22;60138;55.808;37.078;2023-04-24T15:16:42;26.32;16.23
70214;DHT22;60138;55.808;37.078;2023-04-24T15:19:08;26.07;16.49
70214;DHT22;60138;55.808;37.078;2023-04-24T15:21:35;25.77;16.67
70214;DHT22;60138;55.808;37.078;2023-04-24T15:24:00;25.48;16.67
70214;DHT22;60138;55.808;37.078;2023-04-24T15:26:26;25.14;17.02
70214;DHT22;60138;55.808;37.078;2023-04-24T15:28:52;24.85;17.17
70214;DHT22;60138;55.808;37.078;2023-04-24T15:31:18;24.59;17.45
70214;DHT22;60138;55.808;37.078;2023-04-24T15:33:44;24.40;17.66
70214;DHT22;60138;55.808;37.078;2023-04-24T15:36:10;24.20;17.98
70214;DHT22;60138;55.808;37.078;2023-04-24T15:38:37;24.01;18.11